createdAt,value
2018-12-05T00:00:19.500Z,21.40
2018-12-05T00:01:19.711Z,23.50
2018-12-05T00:02:19.808Z,23.60
2018-12-05T00:03:19.920Z,24.10
2018-12-05T00:04:20.049Z,22.40
2018-12-05T00:05:20.234Z,21.50
2018-12-05T00:06:20.349Z,22.40
2018-12-05T00:07:20.452Z,22.10
2018-12-05T00:08:20.539Z,23.70
2018-12-05T00:09:20.670Z,21.50
2018-12-05T00:10:20.786Z,24.40
2018-12-05T00:11:20.861Z,25.10
2018-12-05T00:12:20.995Z,24.00
2018-12-05T00:13:21.071Z,26.30
2018-12-05T00:14:21.166Z,28.00
2018-12-05T00:15:21.274Z,26.50
2018-12-05T00:16:21.393Z,27.60
2018-12-05T00:17:21.564Z,29.30
2018-12-05T00:18:21.652Z,30.10
2018-12-05T00:19:21.761Z,30.10
2018-12-05T00:20:21.898Z,31.20
2018-12-05T00:21:22.082Z,31.90
2018-12-05T00:22:22.196Z,30.60
2018-12-05T00:23:22.301Z,32.70
2018-12-05T00:24:22.411Z,32.10
2018-12-05T00:25:22.519Z,33.20
2018-12-05T00:26:22.621Z,33.10
2018-12-05T00:27:22.728Z,30.90
2018-12-05T00:28:22.831Z,31.40
2018-12-05T00:29:22.601Z,31.70
2018-12-05T00:30:23.167Z,31.00
2018-12-05T00:31:23.275Z,31.20
2018-12-05T00:32:23.376Z,29.20
2018-12-05T00:33:23.456Z,30.20
2018-12-05T00:34:23.567Z,28.70
2018-12-05T00:35:23.776Z,27.30
2018-12-05T00:36:23.785Z,27.50
2018-12-05T00:37:23.585Z,26.40
2018-12-05T00:38:24.027Z,24.10
2018-12-05T00:39:24.304Z,23.90
2018-12-05T00:40:24.667Z,24.30
2018-12-05T00:41:25.020Z,24.00
2018-12-05T00:42:25.313Z,23.80
2018-12-05T00:43:25.855Z,21.80
2018-12-05T00:44:25.656Z,24.70
2018-12-05T00:45:25.936Z,23.60
2018-12-05T00:46:26.209Z,23.30
2018-12-05T00:47:26.597Z,24.40
2018-12-05T00:48:26.855Z,25.50
2018-12-05T00:49:27.107Z,26.80
2018-12-05T00:50:27.597Z,26.20
2018-12-05T00:51:27.874Z,28.20
2018-12-05T00:52:28.166Z,26.40
2018-12-05T00:53:28.456Z,25.80
2018-12-05T00:54:28.723Z,27.80
2018-12-05T00:55:29.219Z,26.50
2018-12-05T00:56:29.003Z,26.10
2018-12-05T00:57:29.288Z,26.30
2018-12-05T00:58:29.569Z,26.50
2018-12-05T00:59:29.845Z,25.40
2018-12-05T01:00:30.101Z,25.70
2018-12-05T01:01:30.364Z,25.30
2018-12-05T01:02:30.769Z,25.10
2018-12-05T01:03:31.036Z,25.50
2018-12-05T01:04:31.298Z,25.60
2018-12-05T01:05:31.754Z,25.80
2018-12-05T01:06:32.030Z,25.90
2018-12-05T01:07:32.358Z,25.50
2018-12-05T01:08:32.647Z,24.90
2018-12-05T01:09:33.024Z,25.10
2018-12-05T01:10:33.574Z,23.80
2018-12-05T01:11:33.659Z,24.70
2018-12-05T01:12:33.801Z,24.70
2018-12-05T01:13:33.944Z,23.60
2018-12-05T01:14:34.054Z,22.70
2018-12-05T01:15:34.328Z,23.90
2018-12-05T01:16:34.441Z,23.00
2018-12-05T01:17:34.613Z,24.40
2018-12-05T01:18:34.855Z,24.00
2018-12-05T01:19:35.006Z,22.80
2018-12-05T01:20:35.120Z,22.70
2018-12-05T01:21:35.396Z,22.00
2018-12-05T01:22:35.555Z,23.40
2018-12-05T01:23:35.705Z,22.40
2018-12-05T01:24:35.827Z,23.80
2018-12-05T01:25:35.985Z,21.20
2018-12-05T01:26:36.067Z,23.50
2018-12-05T01:27:36.129Z,22.00
2018-12-05T01:28:36.211Z,23.00
2018-12-05T01:29:36.270Z,22.40
2018-12-05T01:30:36.372Z,22.60
2018-12-05T01:31:36.457Z,22.10
2018-12-05T01:32:36.604Z,22.30
2018-12-05T01:33:36.742Z,23.90
2018-12-05T01:34:36.826Z,24.70
2018-12-05T01:35:36.928Z,22.80
2018-12-05T01:36:37.048Z,22.80
2018-12-05T01:37:37.149Z,23.60
2018-12-05T01:38:37.253Z,25.70
2018-12-05T01:39:37.320Z,22.80
2018-12-05T01:40:37.400Z,21.60
2018-12-05T01:41:37.482Z,21.80
2018-12-05T01:42:37.570Z,21.40
2018-12-05T01:43:37.653Z,21.40
2018-12-05T01:44:37.675Z,22.10
2018-12-05T01:45:37.743Z,22.40
2018-12-05T01:46:37.852Z,24.50
2018-12-05T01:47:37.933Z,25.90
2018-12-05T01:48:38.009Z,27.20
2018-12-05T01:49:38.134Z,28.30
2018-12-05T01:50:38.216Z,28.00
2018-12-05T01:51:38.304Z,27.60
2018-12-05T01:52:38.402Z,27.20
2018-12-05T01:53:38.503Z,29.40
2018-12-05T01:54:38.605Z,28.30
2018-12-05T01:55:38.742Z,25.40
2018-12-05T01:56:38.846Z,27.50
2018-12-05T01:57:38.870Z,27.30
2018-12-05T01:58:38.965Z,27.10
2018-12-05T01:59:39.040Z,24.50
2018-12-05T02:00:38.953Z,23.80
2018-12-05T02:01:39.359Z,23.60
2018-12-05T02:02:39.665Z,23.40
2018-12-05T02:03:40.181Z,23.30
2018-12-05T02:04:40.462Z,22.10
2018-12-05T02:05:40.774Z,22.30
2018-12-05T02:06:41.169Z,23.60
2018-12-05T02:07:41.453Z,24.10
2018-12-05T02:08:41.853Z,22.90
2018-12-05T02:10:42.272Z,21.80
2018-12-05T02:11:42.560Z,23.00
2018-12-05T02:12:42.838Z,22.80
2018-12-05T02:13:43.149Z,21.40
2018-12-05T02:14:43.439Z,21.70
2018-12-05T02:15:43.724Z,21.90
2018-12-05T02:16:44.001Z,22.80
2018-12-05T02:17:44.288Z,22.50
2018-12-05T02:18:44.605Z,22.70
2018-12-05T02:19:44.917Z,22.80
2018-12-05T02:20:45.206Z,22.40
2018-12-05T02:21:45.690Z,21.60
2018-12-05T02:22:45.936Z,21.50
2018-12-05T02:23:46.223Z,21.60
2018-12-05T02:24:46.485Z,22.50
2018-12-05T02:25:46.777Z,22.90
2018-12-05T02:26:47.090Z,22.80
2018-12-05T02:27:47.390Z,22.40
2018-12-05T02:28:47.666Z,23.40
2018-12-05T02:29:48.654Z,22.90
2018-12-05T02:30:47.987Z,24.00
2018-12-05T02:32:48.606Z,22.30
2018-12-05T02:33:48.640Z,21.90
2018-12-05T02:34:48.733Z,20.70
2018-12-05T02:35:49.088Z,20.80
2018-12-05T02:36:49.122Z,21.30
2018-12-05T02:37:49.259Z,21.70
2018-12-05T02:38:49.367Z,21.50
2018-12-05T02:39:49.471Z,21.10
2018-12-05T02:40:49.603Z,20.80
2018-12-05T02:41:49.692Z,21.60
2018-12-05T02:42:49.810Z,22.80
2018-12-05T02:43:49.997Z,22.80
2018-12-05T02:44:50.112Z,21.70
2018-12-05T02:45:50.221Z,20.70
2018-12-05T02:46:50.353Z,20.40
2018-12-05T02:47:50.534Z,19.60
2018-12-05T02:48:50.773Z,21.40
2018-12-05T02:49:51.001Z,20.60
2018-12-05T02:50:51.125Z,20.70
2018-12-05T02:51:51.220Z,20.70
2018-12-05T02:52:51.375Z,20.50
2018-12-05T02:53:51.518Z,20.40
2018-12-05T02:54:51.583Z,20.40
2018-12-05T02:55:51.719Z,21.70
2018-12-05T02:56:51.947Z,20.40
2018-12-05T02:57:52.054Z,20.30
2018-12-05T02:59:52.161Z,20.60
2018-12-05T03:00:52.251Z,21.40
2018-12-05T03:01:52.360Z,21.90
2018-12-05T03:02:52.464Z,22.10
2018-12-05T03:03:52.307Z,21.20
2018-12-05T03:04:52.585Z,21.70
2018-12-05T03:05:53.172Z,21.50
2018-12-05T03:06:53.240Z,21.90
2018-12-05T03:07:53.327Z,20.30
2018-12-05T03:08:53.435Z,20.80
2018-12-05T03:09:53.549Z,20.80
2018-12-05T03:10:53.655Z,20.90
2018-12-05T03:11:53.770Z,20.00
2018-12-05T03:12:53.830Z,19.50
2018-12-05T03:13:53.972Z,20.00
2018-12-05T03:14:54.214Z,20.70
2018-12-05T03:15:54.201Z,19.60
2018-12-05T03:16:54.483Z,20.70
2018-12-05T03:17:54.750Z,21.40
2018-12-05T03:18:55.018Z,22.40
2018-12-05T03:19:55.282Z,23.90
2018-12-05T03:20:55.734Z,23.20
2018-12-05T03:21:55.983Z,22.80
2018-12-05T03:22:56.266Z,22.30
2018-12-05T03:23:56.506Z,21.70
2018-12-05T03:24:56.781Z,22.10
2018-12-05T03:25:57.140Z,23.30
2018-12-05T03:26:57.419Z,22.00
2018-12-05T03:28:57.736Z,24.00
2018-12-05T03:29:58.010Z,24.50
2018-12-05T03:30:58.255Z,24.80
2018-12-05T03:31:58.518Z,24.90
2018-12-05T03:32:58.787Z,24.70
2018-12-05T03:33:59.053Z,24.70
2018-12-05T03:34:59.516Z,24.90
2018-12-05T03:35:59.776Z,25.10
2018-12-05T03:37:00.046Z,27.20
2018-12-05T03:38:00.371Z,27.60
2018-12-05T03:39:00.847Z,29.90
2018-12-05T03:40:01.082Z,31.00
2018-12-05T03:41:01.741Z,30.60
2018-12-05T03:42:02.356Z,32.90
2018-12-05T03:43:02.358Z,35.80
2018-12-05T03:44:02.641Z,35.30
2018-12-05T03:45:03.130Z,35.60
2018-12-05T03:46:03.012Z,35.50
2018-12-05T03:47:03.593Z,36.00
2018-12-05T03:48:03.685Z,35.40
2018-12-05T03:49:03.768Z,35.30
2018-12-05T03:50:03.887Z,35.80
2018-12-05T03:51:03.977Z,35.70
2018-12-05T03:52:04.131Z,36.00
2018-12-05T03:53:04.374Z,34.80
2018-12-05T03:54:04.436Z,35.20
2018-12-05T03:55:04.546Z,32.80
2018-12-05T03:56:04.740Z,32.50
2018-12-05T03:57:04.870Z,32.50
2018-12-05T03:58:05.034Z,32.00
2018-12-05T03:59:05.260Z,31.50
2018-12-05T04:00:05.389Z,31.30
2018-12-05T04:01:05.533Z,29.90
2018-12-05T04:02:05.750Z,28.40
2018-12-05T04:03:05.791Z,26.90
2018-12-05T04:04:05.855Z,26.90
2018-12-05T04:05:06.002Z,25.70
2018-12-05T04:06:06.059Z,24.20
2018-12-05T04:07:06.223Z,24.50
2018-12-05T04:08:06.290Z,23.90
2018-12-05T04:09:06.378Z,23.80
2018-12-05T04:10:06.566Z,24.20
2018-12-05T04:11:06.658Z,22.50
2018-12-05T04:12:06.775Z,22.70
2018-12-05T04:13:06.874Z,21.70
2018-12-05T04:14:06.988Z,20.80
2018-12-05T04:15:07.040Z,19.50
2018-12-05T04:16:07.011Z,19.40
2018-12-05T04:17:07.588Z,19.10
2018-12-05T04:18:07.649Z,19.10
2018-12-05T04:19:07.717Z,18.30
2018-12-05T04:20:07.477Z,18.20
2018-12-05T04:21:08.041Z,15.60
2018-12-05T04:22:08.173Z,17.00
2018-12-05T04:23:08.001Z,16.10
2018-12-05T04:24:08.580Z,15.30
2018-12-05T04:25:08.642Z,14.70
2018-12-05T04:26:08.737Z,14.50
2018-12-05T04:27:08.520Z,13.50
2018-12-05T04:28:08.951Z,14.70
2018-12-05T04:29:09.346Z,14.00
2018-12-05T04:30:09.688Z,13.90
2018-12-05T04:31:09.987Z,14.90
2018-12-05T04:32:10.478Z,14.40
2018-12-05T04:33:10.795Z,14.00
2018-12-05T04:34:11.121Z,14.10
2018-12-05T04:35:11.569Z,14.50
2018-12-05T04:36:11.851Z,15.70
2018-12-05T04:37:12.132Z,15.70
2018-12-05T04:38:12.414Z,15.00
2018-12-05T04:39:12.717Z,15.30
2018-12-05T04:40:13.075Z,15.10
2018-12-05T04:41:13.358Z,16.50
2018-12-05T04:42:13.658Z,14.60
2018-12-05T04:43:13.954Z,14.40
2018-12-05T04:44:14.250Z,14.00
2018-12-05T04:45:14.854Z,13.50
2018-12-05T04:46:14.770Z,13.40
2018-12-05T04:47:15.047Z,12.60
2018-12-05T04:48:15.483Z,13.30
2018-12-05T04:50:15.656Z,13.00
2018-12-05T04:51:15.469Z,12.80
2018-12-05T04:52:15.739Z,13.00
2018-12-05T04:53:16.021Z,12.40
2018-12-05T04:54:16.285Z,12.20
2018-12-05T04:55:16.762Z,12.60
2018-12-05T04:56:17.037Z,12.60
2018-12-05T04:57:17.287Z,12.90
2018-12-05T04:58:17.601Z,12.00
2018-12-05T04:59:17.946Z,13.50
2018-12-05T05:00:18.543Z,13.70
2018-12-05T05:01:18.641Z,13.30
2018-12-05T05:02:18.749Z,12.50
2018-12-05T05:03:18.824Z,13.70
2018-12-05T05:04:18.923Z,14.60
2018-12-05T05:05:19.067Z,14.40
2018-12-05T05:06:19.186Z,14.80
2018-12-05T05:07:19.298Z,13.90
2018-12-05T05:08:19.463Z,15.60
2018-12-05T05:09:19.618Z,15.40
2018-12-05T05:10:19.796Z,14.80
2018-12-05T05:11:19.939Z,15.00
2018-12-05T05:12:20.096Z,15.10
2018-12-05T05:13:20.257Z,15.60
2018-12-05T05:14:20.422Z,16.50
2018-12-05T05:15:20.587Z,14.80
2018-12-05T05:16:20.733Z,12.30
2018-12-05T05:17:20.955Z,14.40
2018-12-05T05:18:21.096Z,13.40
2018-12-05T05:19:21.165Z,13.60
2018-12-05T05:20:21.235Z,12.90
2018-12-05T05:21:21.293Z,13.20
2018-12-05T05:22:21.354Z,13.80
2018-12-05T05:23:21.431Z,12.50
2018-12-05T05:24:21.795Z,13.10
2018-12-05T05:25:21.902Z,12.30
2018-12-05T05:26:22.024Z,12.40
2018-12-05T05:27:22.169Z,12.20
2018-12-05T05:28:22.255Z,14.20
2018-12-05T05:29:22.383Z,12.70
2018-12-05T05:30:22.445Z,12.70
2018-12-05T05:31:23.812Z,14.00
2018-12-05T05:32:22.607Z,13.70
2018-12-05T05:33:22.674Z,13.70
2018-12-05T05:34:22.778Z,12.90
2018-12-05T05:35:22.861Z,14.50
2018-12-05T05:36:22.945Z,14.90
2018-12-05T05:37:23.029Z,14.10
2018-12-05T05:38:23.124Z,14.10
2018-12-05T05:39:23.270Z,14.80
2018-12-05T05:40:23.461Z,13.90
2018-12-05T05:41:23.551Z,13.70
2018-12-05T05:42:23.661Z,13.10
2018-12-05T05:43:23.720Z,13.00
2018-12-05T05:44:23.824Z,12.70
2018-12-05T05:45:23.901Z,13.10
2018-12-05T05:46:23.856Z,12.50
2018-12-05T05:47:24.291Z,13.90
2018-12-05T05:48:24.563Z,13.50
2018-12-05T05:49:39.731Z,13.20
2018-12-05T05:50:25.252Z,12.20
2018-12-05T05:51:25.784Z,12.80
2018-12-05T05:52:25.553Z,13.10
2018-12-05T05:53:25.813Z,12.80
2018-12-05T05:54:26.129Z,12.60
2018-12-05T05:55:26.640Z,13.70
2018-12-05T05:56:26.924Z,13.10
2018-12-05T05:57:27.225Z,13.30
2018-12-05T05:58:27.524Z,13.90
2018-12-05T05:59:27.873Z,12.40
2018-12-05T06:00:28.162Z,13.60
2018-12-05T06:01:28.627Z,13.90
2018-12-05T06:02:28.921Z,13.50
2018-12-05T06:03:29.182Z,13.40
2018-12-05T06:04:29.447Z,13.70
2018-12-05T06:05:29.769Z,13.90
2018-12-05T06:06:33.747Z,14.10
2018-12-05T06:07:30.825Z,12.80
2018-12-05T06:08:30.609Z,13.90
2018-12-05T06:09:30.885Z,13.10
2018-12-05T06:10:31.481Z,15.20
2018-12-05T06:11:31.354Z,15.60
2018-12-05T06:12:31.671Z,15.10
2018-12-05T06:13:31.960Z,14.80
2018-12-05T06:14:32.234Z,14.50
2018-12-05T06:15:32.538Z,14.70
2018-12-05T06:16:32.858Z,14.30
2018-12-05T06:17:33.354Z,13.40
2018-12-05T06:18:33.907Z,14.10
2018-12-05T06:19:34.064Z,13.50
2018-12-05T06:20:34.216Z,14.80
2018-12-05T06:21:34.860Z,15.00
2018-12-05T06:22:34.566Z,14.90
2018-12-05T06:23:34.739Z,14.90
2018-12-05T06:24:34.855Z,13.20
2018-12-05T06:25:35.058Z,14.80
2018-12-05T06:26:35.182Z,14.70
2018-12-05T06:27:35.314Z,14.50
2018-12-05T06:28:35.470Z,14.80
2018-12-05T06:29:35.608Z,13.60
2018-12-05T06:30:35.811Z,13.70
2018-12-05T06:31:35.901Z,14.20
2018-12-05T06:32:36.040Z,14.00
2018-12-05T06:33:36.173Z,13.00
2018-12-05T06:34:36.242Z,13.60
2018-12-05T06:35:36.368Z,13.20
2018-12-05T06:36:36.449Z,14.40
2018-12-05T06:37:36.604Z,13.10
2018-12-05T06:38:36.699Z,13.60
2018-12-05T06:39:36.788Z,14.00
2018-12-05T06:40:36.935Z,13.70
2018-12-05T06:41:37.060Z,13.40
2018-12-05T06:42:37.172Z,12.60
2018-12-05T06:43:37.250Z,12.90
2018-12-05T06:44:37.374Z,12.40
2018-12-05T06:45:37.543Z,12.80
2018-12-05T06:46:37.640Z,12.30
2018-12-05T06:47:37.766Z,11.30
2018-12-05T06:48:37.846Z,11.60
2018-12-05T06:49:37.958Z,11.80
2018-12-05T06:50:38.082Z,11.50
2018-12-05T06:51:38.180Z,12.50
2018-12-05T06:52:38.288Z,10.40
2018-12-05T06:53:38.397Z,10.00
2018-12-05T06:54:38.483Z,11.20
2018-12-05T06:55:39.280Z,10.10
2018-12-05T06:56:38.791Z,10.00
2018-12-05T06:57:38.887Z,10.30
2018-12-05T06:58:38.956Z,10.40
2018-12-05T06:59:38.964Z,9.30
2018-12-05T07:00:39.163Z,10.40
2018-12-05T07:01:39.130Z,11.50
2018-12-05T07:02:39.422Z,10.30
2018-12-05T07:03:39.728Z,10.40
2018-12-05T07:04:40.256Z,10.00
2018-12-05T07:05:40.206Z,10.50
2018-12-05T07:06:40.664Z,10.00
2018-12-05T07:07:41.068Z,11.50
2018-12-05T07:08:41.394Z,9.30
2018-12-05T07:09:42.029Z,10.00
2018-12-05T07:10:41.952Z,10.40
2018-12-05T07:11:42.260Z,10.70
2018-12-05T07:13:43.016Z,10.50
2018-12-05T07:14:43.442Z,10.70
2018-12-05T07:15:43.757Z,10.30
2018-12-05T07:16:44.057Z,11.10
2018-12-05T07:17:44.347Z,10.60
2018-12-05T07:18:44.627Z,9.90
2018-12-05T07:19:44.924Z,9.60
2018-12-05T07:20:45.254Z,10.40
2018-12-05T07:21:45.586Z,10.80
2018-12-05T07:22:45.949Z,11.70
2018-12-05T07:23:46.202Z,10.70
2018-12-05T07:24:46.462Z,12.10
2018-12-05T07:25:46.763Z,11.30
2018-12-05T07:26:47.024Z,10.90
2018-12-05T07:27:47.290Z,9.80
2018-12-05T07:28:47.639Z,10.00
2018-12-05T07:29:48.153Z,10.60
2018-12-05T07:30:48.050Z,11.90
2018-12-05T07:31:48.692Z,12.00
2018-12-05T07:32:48.808Z,11.40
2018-12-05T07:33:48.947Z,11.30
2018-12-05T07:34:49.235Z,12.20
2018-12-05T07:35:49.468Z,12.00
2018-12-05T07:36:49.634Z,11.60
2018-12-05T07:37:49.764Z,13.80
2018-12-05T07:38:49.910Z,11.70
2018-12-05T07:40:50.196Z,10.80
2018-12-05T07:41:50.347Z,11.80
2018-12-05T07:42:50.496Z,10.70
2018-12-05T07:43:50.626Z,11.70
2018-12-05T07:44:50.784Z,12.00
2018-12-05T07:45:50.921Z,11.00
2018-12-05T07:46:51.008Z,10.00
2018-12-05T07:47:51.096Z,11.60
2018-12-05T07:48:51.355Z,11.90
2018-12-05T07:49:51.475Z,11.30
2018-12-05T07:50:51.571Z,9.90
2018-12-05T07:51:51.662Z,10.00
2018-12-05T07:52:51.806Z,10.50
2018-12-05T07:53:51.919Z,10.40
2018-12-05T07:54:52.061Z,10.90
2018-12-05T07:55:52.312Z,11.30
2018-12-05T07:56:52.338Z,11.00
2018-12-05T07:57:52.413Z,10.90
2018-12-05T07:58:52.479Z,9.40
2018-12-05T07:59:52.596Z,10.20
2018-12-05T08:00:52.706Z,10.20
2018-12-05T08:01:52.890Z,10.30
2018-12-05T08:02:52.965Z,10.30
2018-12-05T08:03:53.041Z,9.40
2018-12-05T08:04:53.109Z,10.10
2018-12-05T08:05:53.202Z,10.30
2018-12-05T08:06:53.270Z,10.20
2018-12-05T08:07:53.357Z,9.90
2018-12-05T08:08:53.439Z,10.70
2018-12-05T08:10:53.637Z,11.30
2018-12-05T08:11:53.677Z,10.10
2018-12-05T08:12:53.761Z,11.40
2018-12-05T08:13:53.985Z,10.80
2018-12-05T08:14:53.980Z,10.50
2018-12-05T08:15:54.544Z,11.10
2018-12-05T08:16:54.528Z,10.30
2018-12-05T08:17:54.833Z,10.20
2018-12-05T08:18:55.282Z,10.50
2018-12-05T08:19:55.677Z,11.00
2018-12-05T08:20:55.991Z,9.90
2018-12-05T08:21:56.326Z,11.30
2018-12-05T08:22:56.792Z,10.70
2018-12-05T08:23:57.101Z,11.00
2018-12-05T08:24:57.380Z,10.90
2018-12-05T08:25:57.694Z,11.60
2018-12-05T08:26:58.064Z,10.80
2018-12-05T08:27:58.457Z,10.20
2018-12-05T08:28:58.761Z,10.80
2018-12-05T08:29:59.087Z,10.20
2018-12-05T08:30:59.399Z,10.20
2018-12-05T08:31:59.662Z,9.30
2018-12-05T08:32:59.994Z,9.70
2018-12-05T08:34:00.519Z,10.70
2018-12-05T08:35:00.340Z,10.50
2018-12-05T08:36:00.672Z,12.10
2018-12-05T08:37:01.252Z,11.20
2018-12-05T08:38:01.329Z,10.50
2018-12-05T08:39:01.367Z,11.20
2018-12-05T08:40:01.604Z,10.90
2018-12-05T08:41:01.395Z,10.60
2018-12-05T08:42:01.923Z,10.40
2018-12-05T08:43:02.042Z,9.70
2018-12-05T08:44:02.094Z,8.90
2018-12-05T08:45:02.265Z,9.50
2018-12-05T08:46:02.419Z,9.70
2018-12-05T08:47:02.419Z,10.30
2018-12-05T08:48:02.512Z,10.10
2018-12-05T08:49:02.538Z,11.40
2018-12-05T08:50:02.634Z,10.00
2018-12-05T08:51:03.009Z,9.20
2018-12-05T08:52:02.744Z,10.20
2018-12-05T08:53:03.363Z,10.70
2018-12-05T08:54:03.498Z,10.60
2018-12-05T08:55:03.623Z,9.20
2018-12-05T08:56:03.774Z,9.50
2018-12-05T08:57:03.895Z,9.80
2018-12-05T08:58:04.059Z,10.40
2018-12-05T08:59:04.208Z,9.90
2018-12-05T09:00:04.402Z,10.10
2018-12-05T09:01:04.524Z,9.10
2018-12-05T09:02:05.143Z,8.70
2018-12-05T09:03:05.302Z,10.20
2018-12-05T09:04:05.470Z,10.40
2018-12-05T09:05:05.612Z,9.50
2018-12-05T09:06:05.788Z,10.20
2018-12-05T09:07:05.930Z,10.00
2018-12-05T09:08:06.063Z,9.60
2018-12-05T09:09:06.213Z,10.00
2018-12-05T09:10:06.332Z,10.10
2018-12-05T09:11:06.506Z,9.60
2018-12-05T09:12:06.693Z,9.40
2018-12-05T09:13:06.809Z,9.90
2018-12-05T09:14:06.960Z,10.20
2018-12-05T09:15:07.261Z,9.70
2018-12-05T09:16:07.208Z,10.40
2018-12-05T09:17:07.324Z,9.90
2018-12-05T09:18:07.394Z,10.50
2018-12-05T09:19:07.327Z,10.40
2018-12-05T09:20:07.787Z,10.40
2018-12-05T09:21:08.358Z,10.20
2018-12-05T09:22:08.414Z,11.10
2018-12-05T09:23:08.520Z,11.10
2018-12-05T09:24:08.639Z,10.50
2018-12-05T09:25:08.731Z,10.30
2018-12-05T09:26:08.686Z,10.40
2018-12-05T09:27:08.851Z,10.80
2018-12-05T09:28:08.961Z,10.10
2018-12-05T09:29:08.964Z,9.90
2018-12-05T09:30:09.082Z,9.50
2018-12-05T09:31:09.155Z,11.20
2018-12-05T09:32:08.898Z,10.40
2018-12-05T09:33:09.416Z,12.10
2018-12-05T09:34:10.097Z,10.50
2018-12-05T09:35:10.153Z,10.10
2018-12-05T09:36:09.932Z,10.40
2018-12-05T09:37:10.264Z,9.90
2018-12-05T09:38:10.538Z,10.70
2018-12-05T09:39:11.072Z,9.30
2018-12-05T09:40:11.060Z,10.10
2018-12-05T09:41:11.430Z,9.80
2018-12-05T09:42:11.761Z,11.30
2018-12-05T09:43:12.184Z,11.10
2018-12-05T09:44:12.457Z,10.60
2018-12-05T09:45:12.852Z,10.00
2018-12-05T09:46:13.146Z,10.30
2018-12-05T09:47:16.020Z,10.60
2018-12-05T09:48:13.727Z,11.90
2018-12-05T09:49:13.984Z,12.00
2018-12-05T09:50:14.307Z,10.50
2018-12-05T09:51:14.630Z,11.20
2018-12-05T09:52:14.938Z,10.80
2018-12-05T09:53:15.292Z,9.90
2018-12-05T09:54:15.597Z,10.30
2018-12-05T09:55:16.263Z,9.50
2018-12-05T09:56:16.075Z,10.20
2018-12-05T09:57:16.365Z,9.60
2018-12-05T09:58:16.711Z,9.70
2018-12-05T09:59:17.132Z,9.40
2018-12-05T10:00:17.706Z,10.80
2018-12-05T10:01:17.492Z,10.20
2018-12-05T10:02:17.818Z,9.60
2018-12-05T10:03:18.313Z,9.70
2018-12-05T10:04:18.935Z,10.30
2018-12-05T10:05:19.059Z,9.70
2018-12-05T10:06:19.194Z,10.10
2018-12-05T10:07:19.369Z,10.30
2018-12-05T10:08:19.520Z,10.00
2018-12-05T10:09:19.698Z,9.80
2018-12-05T10:10:19.835Z,9.80
2018-12-05T10:11:19.994Z,9.50
2018-12-05T10:12:20.155Z,10.90
2018-12-05T10:13:20.325Z,10.00
2018-12-05T10:14:20.472Z,11.20
2018-12-05T10:15:20.634Z,11.20
2018-12-05T10:16:20.817Z,10.40
2018-12-05T10:17:20.950Z,10.30
2018-12-05T10:18:21.007Z,10.80
2018-12-05T10:19:21.082Z,11.30
2018-12-05T10:20:21.182Z,10.50
2018-12-05T10:21:21.267Z,11.00
2018-12-05T10:22:21.345Z,10.40
2018-12-05T10:23:21.416Z,9.90
2018-12-05T10:24:21.571Z,11.00
2018-12-05T10:25:21.669Z,10.40
2018-12-05T10:26:21.778Z,10.60
2018-12-05T10:27:21.881Z,9.50
2018-12-05T10:28:21.976Z,9.80
2018-12-05T10:29:22.103Z,9.50
2018-12-05T10:30:22.176Z,9.70
2018-12-05T10:31:22.276Z,10.90
2018-12-05T10:32:22.345Z,10.20
2018-12-05T10:33:22.450Z,10.30
2018-12-05T10:34:22.548Z,10.40
2018-12-05T10:35:22.673Z,10.20
2018-12-05T10:37:22.767Z,11.80
2018-12-05T10:38:22.853Z,15.30
2018-12-05T10:39:22.937Z,12.30
2018-12-05T10:40:23.002Z,12.60
2018-12-05T10:41:23.154Z,12.40
2018-12-05T10:42:23.248Z,11.00
2018-12-05T10:43:23.324Z,9.70
2018-12-05T10:44:23.481Z,11.10
2018-12-05T10:45:23.678Z,10.60
2018-12-05T10:46:23.776Z,9.20
2018-12-05T10:47:23.508Z,10.20
2018-12-05T10:48:24.085Z,10.30
2018-12-05T10:49:24.008Z,9.80
2018-12-05T10:50:24.261Z,10.30
2018-12-05T10:51:24.530Z,9.80
2018-12-05T10:52:24.794Z,10.50
2018-12-05T10:53:25.068Z,10.70
2018-12-05T10:54:25.419Z,10.20
2018-12-05T10:55:25.744Z,10.80
2018-12-05T10:56:26.022Z,9.90
2018-12-05T10:57:26.349Z,10.50
2018-12-05T10:58:26.683Z,10.50
2018-12-05T10:59:26.989Z,10.10
2018-12-05T11:00:27.263Z,11.60
2018-12-05T11:01:27.695Z,10.10
2018-12-05T11:02:28.138Z,10.60
2018-12-05T11:03:28.762Z,11.10
2018-12-05T11:04:29.184Z,11.00
2018-12-05T11:05:29.138Z,10.60
2018-12-05T11:06:29.548Z,10.60
2018-12-05T11:07:29.979Z,10.20
2018-12-05T11:08:30.461Z,11.20
2018-12-05T11:09:30.410Z,11.10
2018-12-05T11:10:30.852Z,10.60
2018-12-05T11:11:31.526Z,10.50
2018-12-05T11:12:31.454Z,10.00
2018-12-05T11:13:32.132Z,10.20
2018-12-05T11:14:32.273Z,11.00
2018-12-05T11:15:32.213Z,10.80
2018-12-05T11:16:32.628Z,10.80
2018-12-05T11:17:32.669Z,10.60
2018-12-05T11:18:33.016Z,10.30
2018-12-05T11:19:33.613Z,10.70
2018-12-05T11:20:33.902Z,10.60
2018-12-05T11:21:34.200Z,10.60
2018-12-05T11:22:34.450Z,10.20
2018-12-05T11:23:34.724Z,10.70
2018-12-05T11:24:34.992Z,11.00
2018-12-05T11:25:35.187Z,9.70
2018-12-05T11:26:35.400Z,9.10
2018-12-05T11:27:35.702Z,11.00
2018-12-05T11:28:35.767Z,10.50
2018-12-05T11:29:35.871Z,10.20
2018-12-05T11:30:35.964Z,10.20
2018-12-05T11:32:36.052Z,10.30
2018-12-05T11:33:36.118Z,10.40
2018-12-05T11:34:36.187Z,11.40
2018-12-05T11:35:36.343Z,11.00
2018-12-05T11:36:36.370Z,10.90
2018-12-05T11:37:36.484Z,11.30
2018-12-05T11:38:36.585Z,10.00
2018-12-05T11:39:36.771Z,10.90
2018-12-05T11:40:36.887Z,10.30
2018-12-05T11:41:36.994Z,10.10
2018-12-05T11:42:37.195Z,10.90
2018-12-05T11:43:37.320Z,9.90
2018-12-05T11:44:37.439Z,10.60
2018-12-05T11:45:37.521Z,11.00
2018-12-05T11:46:37.630Z,10.50
2018-12-05T11:47:37.709Z,10.80
2018-12-05T11:48:37.791Z,10.50
2018-12-05T11:49:37.912Z,10.80
2018-12-05T11:50:37.682Z,10.00
2018-12-05T11:51:38.282Z,10.30
2018-12-05T11:52:38.371Z,10.70
2018-12-05T11:53:38.452Z,11.90
2018-12-05T11:54:38.613Z,11.30
2018-12-05T11:55:38.888Z,10.10
2018-12-05T11:56:39.029Z,11.10
2018-12-05T11:57:39.085Z,11.00
2018-12-05T11:58:39.138Z,10.80
2018-12-05T11:59:39.265Z,10.30
2018-12-05T12:00:39.093Z,11.40
2018-12-05T12:01:39.553Z,10.50
2018-12-05T12:02:39.841Z,9.70
2018-12-05T12:03:40.161Z,10.50
2018-12-05T12:04:40.649Z,11.20
2018-12-05T12:05:40.491Z,10.20
2018-12-05T12:06:40.836Z,11.30
2018-12-05T12:07:41.118Z,11.50
2018-12-05T12:08:41.613Z,9.70
2018-12-05T12:09:42.259Z,11.00
2018-12-05T12:10:42.156Z,11.10
2018-12-05T12:11:42.656Z,11.30
2018-12-05T12:12:42.968Z,11.10
2018-12-05T12:13:43.433Z,10.20
2018-12-05T12:14:43.719Z,10.80
2018-12-05T12:15:44.078Z,10.80
2018-12-05T12:16:44.346Z,11.90
2018-12-05T12:17:44.648Z,12.50
2018-12-05T12:18:44.944Z,10.90
2018-12-05T12:19:45.239Z,11.60
2018-12-05T12:20:45.663Z,10.70
2018-12-05T12:21:45.947Z,11.00
2018-12-05T12:22:46.243Z,10.30
2018-12-05T12:23:46.509Z,10.80
2018-12-05T12:24:46.803Z,10.00
2018-12-05T12:25:47.136Z,10.80
2018-12-05T12:26:47.705Z,10.10
2018-12-05T12:27:47.539Z,11.30
2018-12-05T12:28:48.163Z,10.50
2018-12-05T12:29:48.180Z,11.60
2018-12-05T12:30:48.753Z,9.90
2018-12-05T12:31:48.877Z,11.70
2018-12-05T12:32:49.033Z,11.50
2018-12-05T12:33:49.172Z,10.10
2018-12-05T12:34:49.307Z,10.50
2018-12-05T12:35:49.466Z,10.90
2018-12-05T12:36:49.629Z,10.30
2018-12-05T12:37:49.811Z,10.90
2018-12-05T12:38:49.945Z,9.80
2018-12-05T12:39:50.170Z,12.30
2018-12-05T12:40:50.415Z,10.60
2018-12-05T12:41:50.627Z,11.00
2018-12-05T12:42:50.839Z,11.60
2018-12-05T12:43:50.960Z,11.50
2018-12-05T12:44:51.178Z,10.90
2018-12-05T12:45:51.357Z,10.40
2018-12-05T12:46:51.491Z,10.90
2018-12-05T12:47:51.692Z,11.40
2018-12-05T12:48:51.848Z,10.40
2018-12-05T12:49:52.344Z,11.30
2018-12-05T12:50:52.466Z,11.40
2018-12-05T12:51:52.844Z,11.30
2018-12-05T12:52:53.222Z,12.20
2018-12-05T12:54:53.735Z,10.80
2018-12-05T12:55:53.793Z,11.40
2018-12-05T12:56:53.844Z,11.20
2018-12-05T12:58:53.925Z,10.60
2018-12-05T12:59:53.950Z,12.00
2018-12-05T13:00:54.039Z,12.30
2018-12-05T13:01:53.974Z,11.70
2018-12-05T13:02:54.240Z,11.60
2018-12-05T13:03:54.665Z,12.40
2018-12-05T13:04:55.202Z,11.50
2018-12-05T13:05:54.973Z,11.30
2018-12-05T13:06:55.222Z,12.10
2018-12-05T13:07:55.492Z,13.00
2018-12-05T13:08:55.969Z,12.00